sensor_id;sensor_type;location;lat;lon;timestamp;P1;durP1;ratioP1;P2;durP2;ratioP2
56770;SDS011;42641;59.794;17.616;2023-07-13T00:02:25;4.83;;;3.27;;
56770;SDS011;42641;59.794;17.616;2023-07-13T00:04:52;4.57;;;3.00;;
56770;SDS011;42641;59.794;17.616;2023-07-13T00:07:19;3.40;;;3.10;;
56770;SDS011;42641;59.794;17.616;2023-07-13T00:09:49;3.23;;;3.03;;
56770;SDS011;42641;59.794;17.616;2023-07-13T00:12:23;3.60;;;2.70;;
56770;SDS011;42641;59.794;17.616;2023-07-13T00:14:58;2.73;;;2.50;;
56770;SDS011;42641;59.794;17.616;2023-07-13T00:17:26;3.13;;;2.70;;
56770;SDS011;42641;59.794;17.616;2023-07-13T00:19:54;3.08;;;2.78;;
56770;SDS011;42641;59.794;17.616;2023-07-13T00:22:22;2.80;;;2.60;;
56770;SDS011;42641;59.794;17.616;2023-07-13T00:24:54;3.60;;;2.50;;
56770;SDS011;42641;59.794;17.616;2023-07-13T00:27:24;2.22;;;2.10;;
56770;SDS011;42641;59.794;17.616;2023-07-13T00:29:52;2.95;;;2.20;;
56770;SDS011;42641;59.794;17.616;2023-07-13T00:32:19;3.08;;;2.67;;
56770;SDS011;42641;59.794;17.616;2023-07-13T00:34:45;3.03;;;2.67;;
56770;SDS011;42641;59.794;17.616;2023-07-13T00:37:12;2.53;;;2.30;;
56770;SDS011;42641;59.794;17.616;2023-07-13T00:39:39;3.00;;;2.60;;
56770;SDS011;42641;59.794;17.616;2023-07-13T00:42:05;2.88;;;2.50;;
56770;SDS011;42641;59.794;17.616;2023-07-13T00:44:32;3.47;;;3.17;;
56770;SDS011;42641;59.794;17.616;2023-07-13T00:46:59;3.33;;;2.70;;
56770;SDS011;42641;59.794;17.616;2023-07-13T00:49:26;3.45;;;2.72;;
56770;SDS011;42641;59.794;17.616;2023-07-13T00:51:56;4.03;;;2.70;;
56770;SDS011;42641;59.794;17.616;2023-07-13T00:54:43;3.77;;;2.90;;
56770;SDS011;42641;59.794;17.616;2023-07-13T00:57:14;4.38;;;3.00;;
56770;SDS011;42641;59.794;17.616;2023-07-13T00:59:45;2.90;;;2.70;;
56770;SDS011;42641;59.794;17.616;2023-07-13T01:02:14;2.80;;;2.60;;
56770;SDS011;42641;59.794;17.616;2023-07-13T01:04:42;3.00;;;2.77;;
56770;SDS011;42641;59.794;17.616;2023-07-13T01:07:10;5.13;;;2.83;;
56770;SDS011;42641;59.794;17.616;2023-07-13T01:09:38;3.53;;;2.63;;
56770;SDS011;42641;59.794;17.616;2023-07-13T01:12:04;3.07;;;2.73;;
56770;SDS011;42641;59.794;17.616;2023-07-13T01:14:31;3.37;;;2.77;;
56770;SDS011;42641;59.794;17.616;2023-07-13T01:16:58;4.00;;;2.77;;
56770;SDS011;42641;59.794;17.616;2023-07-13T01:19:36;3.97;;;2.80;;
56770;SDS011;42641;59.794;17.616;2023-07-13T01:22:06;4.97;;;2.60;;
56770;SDS011;42641;59.794;17.616;2023-07-13T01:24:35;3.00;;;2.80;;
56770;SDS011;42641;59.794;17.616;2023-07-13T01:27:02;3.03;;;2.70;;
56770;SDS011;42641;59.794;17.616;2023-07-13T01:29:30;3.72;;;2.88;;
56770;SDS011;42641;59.794;17.616;2023-07-13T01:31:58;3.27;;;2.93;;
56770;SDS011;42641;59.794;17.616;2023-07-13T01:34:26;3.27;;;2.97;;
56770;SDS011;42641;59.794;17.616;2023-07-13T01:36:53;3.40;;;2.70;;
56770;SDS011;42641;59.794;17.616;2023-07-13T01:39:20;2.87;;;2.57;;
56770;SDS011;42641;59.794;17.616;2023-07-13T01:41:48;5.07;;;2.83;;
56770;SDS011;42641;59.794;17.616;2023-07-13T01:44:14;3.00;;;2.70;;
56770;SDS011;42641;59.794;17.616;2023-07-13T01:46:41;3.40;;;2.77;;
56770;SDS011;42641;59.794;17.616;2023-07-13T01:49:07;3.40;;;2.90;;
56770;SDS011;42641;59.794;17.616;2023-07-13T01:51:34;4.40;;;2.97;;
56770;SDS011;42641;59.794;17.616;2023-07-13T01:54:00;4.13;;;3.00;;
56770;SDS011;42641;59.794;17.616;2023-07-13T01:56:27;3.53;;;2.90;;
56770;SDS011;42641;59.794;17.616;2023-07-13T01:58:53;3.20;;;2.90;;
56770;SDS011;42641;59.794;17.616;2023-07-13T02:01:20;4.23;;;2.83;;
56770;SDS011;42641;59.794;17.616;2023-07-13T02:03:46;5.70;;;3.00;;
56770;SDS011;42641;59.794;17.616;2023-07-13T02:06:13;3.60;;;3.23;;
56770;SDS011;42641;59.794;17.616;2023-07-13T02:08:40;3.80;;;2.97;;
56770;SDS011;42641;59.794;17.616;2023-07-13T02:16:59;3.30;;;3.00;;
56770;SDS011;42641;59.794;17.616;2023-07-13T02:19:25;5.40;;;3.43;;
56770;SDS011;42641;59.794;17.616;2023-07-13T02:21:52;3.90;;;3.50;;
56770;SDS011;42641;59.794;17.616;2023-07-13T02:24:18;4.77;;;3.10;;
56770;SDS011;42641;59.794;17.616;2023-07-13T02:26:47;3.63;;;3.30;;
56770;SDS011;42641;59.794;17.616;2023-07-13T02:29:14;3.43;;;2.97;;
56770;SDS011;42641;59.794;17.616;2023-07-13T02:31:40;5.83;;;3.33;;
56770;SDS011;42641;59.794;17.616;2023-07-13T02:34:07;5.00;;;3.47;;
56770;SDS011;42641;59.794;17.616;2023-07-13T02:36:35;4.03;;;3.60;;
56770;SDS011;42641;59.794;17.616;2023-07-13T02:39:02;5.10;;;3.43;;
56770;SDS011;42641;59.794;17.616;2023-07-13T02:41:31;6.33;;;3.83;;
56770;SDS011;42641;59.794;17.616;2023-07-13T02:43:58;5.30;;;3.53;;
56770;SDS011;42641;59.794;17.616;2023-07-13T02:46:30;4.40;;;3.80;;
56770;SDS011;42641;59.794;17.616;2023-07-13T02:48:56;6.53;;;3.93;;
56770;SDS011;42641;59.794;17.616;2023-07-13T02:51:23;6.33;;;3.90;;
56770;SDS011;42641;59.794;17.616;2023-07-13T02:53:49;7.93;;;3.80;;
56770;SDS011;42641;59.794;17.616;2023-07-13T02:56:18;4.53;;;3.53;;
56770;SDS011;42641;59.794;17.616;2023-07-13T02:58:49;4.03;;;3.53;;
56770;SDS011;42641;59.794;17.616;2023-07-13T03:01:16;9.20;;;4.13;;
56770;SDS011;42641;59.794;17.616;2023-07-13T03:03:45;6.33;;;4.10;;
56770;SDS011;42641;59.794;17.616;2023-07-13T03:06:12;5.60;;;4.13;;
56770;SDS011;42641;59.794;17.616;2023-07-13T03:08:58;6.80;;;4.23;;
56770;SDS011;42641;59.794;17.616;2023-07-13T03:11:26;6.57;;;4.53;;
56770;SDS011;42641;59.794;17.616;2023-07-13T03:14:04;7.03;;;4.20;;
56770;SDS011;42641;59.794;17.616;2023-07-13T03:16:35;5.90;;;3.90;;
56770;SDS011;42641;59.794;17.616;2023-07-13T03:19:02;5.20;;;4.10;;
56770;SDS011;42641;59.794;17.616;2023-07-13T03:21:29;5.53;;;4.73;;
56770;SDS011;42641;59.794;17.616;2023-07-13T03:23:56;4.80;;;3.87;;
56770;SDS011;42641;59.794;17.616;2023-07-13T03:26:22;5.13;;;4.07;;
56770;SDS011;42641;59.794;17.616;2023-07-13T03:28:49;6.90;;;4.33;;
56770;SDS011;42641;59.794;17.616;2023-07-13T03:31:20;5.93;;;3.93;;
56770;SDS011;42641;59.794;17.616;2023-07-13T03:33:49;4.73;;;4.13;;
56770;SDS011;42641;59.794;17.616;2023-07-13T03:36:17;6.37;;;4.60;;
56770;SDS011;42641;59.794;17.616;2023-07-13T03:38:47;5.37;;;3.80;;
56770;SDS011;42641;59.794;17.616;2023-07-13T03:41:16;6.20;;;4.47;;
56770;SDS011;42641;59.794;17.616;2023-07-13T03:43:43;5.67;;;3.77;;
56770;SDS011;42641;59.794;17.616;2023-07-13T03:46:11;5.17;;;4.37;;
56770;SDS011;42641;59.794;17.616;2023-07-13T03:48:37;4.60;;;3.70;;
56770;SDS011;42641;59.794;17.616;2023-07-13T03:51:06;5.10;;;3.87;;
56770;SDS011;42641;59.794;17.616;2023-07-13T03:53:32;5.07;;;4.50;;
56770;SDS011;42641;59.794;17.616;2023-07-13T03:55:59;6.43;;;3.80;;
56770;SDS011;42641;59.794;17.616;2023-07-13T03:58:36;5.35;;;4.43;;
56770;SDS011;42641;59.794;17.616;2023-07-13T04:01:11;6.50;;;3.77;;
56770;SDS011;42641;59.794;17.616;2023-07-13T04:03:39;8.93;;;4.27;;
56770;SDS011;42641;59.794;17.616;2023-07-13T04:06:06;6.50;;;4.40;;
56770;SDS011;42641;59.794;17.616;2023-07-13T04:08:40;4.40;;;3.70;;
56770;SDS011;42641;59.794;17.616;2023-07-13T04:11:08;7.63;;;4.30;;
56770;SDS011;42641;59.794;17.616;2023-07-13T04:13:34;4.87;;;4.10;;
56770;SDS011;42641;59.794;17.616;2023-07-13T04:16:01;7.15;;;4.25;;
56770;SDS011;42641;59.794;17.616;2023-07-13T04:18:27;6.47;;;3.50;;
56770;SDS011;42641;59.794;17.616;2023-07-13T04:20:54;7.28;;;4.30;;
56770;SDS011;42641;59.794;17.616;2023-07-13T04:23:20;3.95;;;3.55;;
56770;SDS011;42641;59.794;17.616;2023-07-13T04:25:47;10.77;;;4.22;;
56770;SDS011;42641;59.794;17.616;2023-07-13T04:28:21;6.57;;;3.73;;
56770;SDS011;42641;59.794;17.616;2023-07-13T04:30:49;8.23;;;4.93;;
56770;SDS011;42641;59.794;17.616;2023-07-13T04:33:16;7.70;;;4.33;;
56770;SDS011;42641;59.794;17.616;2023-07-13T04:35:43;4.97;;;3.73;;
56770;SDS011;42641;59.794;17.616;2023-07-13T04:38:12;8.70;;;4.40;;
56770;SDS011;42641;59.794;17.616;2023-07-13T04:40:40;4.55;;;3.67;;
56770;SDS011;42641;59.794;17.616;2023-07-13T04:43:10;4.85;;;3.33;;
56770;SDS011;42641;59.794;17.616;2023-07-13T04:45:37;5.80;;;3.40;;
56770;SDS011;42641;59.794;17.616;2023-07-13T04:48:03;4.38;;;3.50;;
56770;SDS011;42641;59.794;17.616;2023-07-13T04:50:30;7.43;;;3.30;;
56770;SDS011;42641;59.794;17.616;2023-07-13T04:52:57;5.10;;;3.10;;
56770;SDS011;42641;59.794;17.616;2023-07-13T04:55:25;4.90;;;3.25;;
56770;SDS011;42641;59.794;17.616;2023-07-13T04:57:51;6.25;;;3.47;;
56770;SDS011;42641;59.794;17.616;2023-07-13T05:00:17;7.82;;;3.40;;
56770;SDS011;42641;59.794;17.616;2023-07-13T05:02:44;8.57;;;3.13;;
56770;SDS011;42641;59.794;17.616;2023-07-13T05:05:11;5.70;;;3.20;;
56770;SDS011;42641;59.794;17.616;2023-07-13T05:07:38;7.65;;;3.45;;
56770;SDS011;42641;59.794;17.616;2023-07-13T05:10:05;4.95;;;3.28;;
56770;SDS011;42641;59.794;17.616;2023-07-13T05:12:32;6.85;;;3.15;;
56770;SDS011;42641;59.794;17.616;2023-07-13T05:14:58;4.90;;;3.13;;
56770;SDS011;42641;59.794;17.616;2023-07-13T05:17:25;3.33;;;2.75;;
56770;SDS011;42641;59.794;17.616;2023-07-13T05:19:51;4.20;;;2.80;;
56770;SDS011;42641;59.794;17.616;2023-07-13T05:22:17;4.05;;;2.80;;
56770;SDS011;42641;59.794;17.616;2023-07-13T05:24:44;6.53;;;3.20;;
56770;SDS011;42641;59.794;17.616;2023-07-13T05:27:10;4.60;;;2.78;;
56770;SDS011;42641;59.794;17.616;2023-07-13T05:29:37;3.40;;;2.88;;
56770;SDS011;42641;59.794;17.616;2023-07-13T05:32:04;6.30;;;2.67;;
56770;SDS011;42641;59.794;17.616;2023-07-13T05:34:31;6.22;;;2.90;;
56770;SDS011;42641;59.794;17.616;2023-07-13T05:36:57;3.97;;;2.40;;
56770;SDS011;42641;59.794;17.616;2023-07-13T05:39:24;5.90;;;2.60;;
56770;SDS011;42641;59.794;17.616;2023-07-13T05:41:51;7.10;;;3.15;;
56770;SDS011;42641;59.794;17.616;2023-07-13T05:44:18;5.22;;;2.40;;
56770;SDS011;42641;59.794;17.616;2023-07-13T05:46:45;5.45;;;2.78;;
56770;SDS011;42641;59.794;17.616;2023-07-13T05:49:11;5.57;;;2.88;;
56770;SDS011;42641;59.794;17.616;2023-07-13T05:51:38;6.55;;;2.80;;
56770;SDS011;42641;59.794;17.616;2023-07-13T05:54:04;4.88;;;2.70;;
56770;SDS011;42641;59.794;17.616;2023-07-13T05:56:31;4.40;;;2.47;;
56770;SDS011;42641;59.794;17.616;2023-07-13T05:58:57;4.60;;;2.25;;
56770;SDS011;42641;59.794;17.616;2023-07-13T06:01:24;3.55;;;2.53;;
56770;SDS011;42641;59.794;17.616;2023-07-13T06:03:50;5.05;;;2.60;;
56770;SDS011;42641;59.794;17.616;2023-07-13T06:06:17;3.33;;;2.45;;
56770;SDS011;42641;59.794;17.616;2023-07-13T06:08:43;5.55;;;2.40;;
56770;SDS011;42641;59.794;17.616;2023-07-13T06:11:20;4.45;;;2.33;;
56770;SDS011;42641;59.794;17.616;2023-07-13T06:13:48;5.45;;;2.67;;
56770;SDS011;42641;59.794;17.616;2023-07-13T06:16:15;3.80;;;2.20;;
56770;SDS011;42641;59.794;17.616;2023-07-13T06:18:42;2.55;;;2.35;;
56770;SDS011;42641;59.794;17.616;2023-07-13T06:21:09;4.25;;;2.38;;
56770;SDS011;42641;59.794;17.616;2023-07-13T06:23:38;3.75;;;2.20;;
56770;SDS011;42641;59.794;17.616;2023-07-13T06:26:04;8.73;;;2.40;;
56770;SDS011;42641;59.794;17.616;2023-07-13T06:28:31;3.75;;;2.40;;
56770;SDS011;42641;59.794;17.616;2023-07-13T06:30:59;5.82;;;2.30;;
56770;SDS011;42641;59.794;17.616;2023-07-13T06:33:26;4.40;;;2.20;;
56770;SDS011;42641;59.794;17.616;2023-07-13T06:35:53;3.67;;;2.08;;
56770;SDS011;42641;59.794;17.616;2023-07-13T06:38:20;4.40;;;2.20;;
56770;SDS011;42641;59.794;17.616;2023-07-13T06:40:47;4.10;;;2.47;;
56770;SDS011;42641;59.794;17.616;2023-07-13T06:43:14;4.70;;;2.00;;
56770;SDS011;42641;59.794;17.616;2023-07-13T06:45:44;3.42;;;2.33;;
56770;SDS011;42641;59.794;17.616;2023-07-13T06:48:13;3.25;;;1.92;;
56770;SDS011;42641;59.794;17.616;2023-07-13T06:50:40;12.10;;;2.25;;
56770;SDS011;42641;59.794;17.616;2023-07-13T06:53:08;5.63;;;2.00;;
56770;SDS011;42641;59.794;17.616;2023-07-13T06:55:35;4.50;;;2.30;;
56770;SDS011;42641;59.794;17.616;2023-07-13T06:58:01;5.65;;;2.13;;
56770;SDS011;42641;59.794;17.616;2023-07-13T07:00:28;4.82;;;2.00;;
56770;SDS011;42641;59.794;17.616;2023-07-13T07:02:55;5.07;;;1.90;;
56770;SDS011;42641;59.794;17.616;2023-07-13T07:05:22;3.25;;;1.83;;
56770;SDS011;42641;59.794;17.616;2023-07-13T07:07:51;4.63;;;1.88;;
56770;SDS011;42641;59.794;17.616;2023-07-13T07:10:20;4.40;;;1.70;;
56770;SDS011;42641;59.794;17.616;2023-07-13T07:12:47;2.63;;;1.63;;
56770;SDS011;42641;59.794;17.616;2023-07-13T07:15:14;6.68;;;2.10;;
56770;SDS011;42641;59.794;17.616;2023-07-13T07:17:40;3.28;;;1.58;;
56770;SDS011;42641;59.794;17.616;2023-07-13T07:20:07;5.40;;;2.13;;
56770;SDS011;42641;59.794;17.616;2023-07-13T07:22:34;4.85;;;2.15;;
56770;SDS011;42641;59.794;17.616;2023-07-13T07:25:00;3.38;;;1.92;;
56770;SDS011;42641;59.794;17.616;2023-07-13T07:27:27;3.65;;;1.88;;
56770;SDS011;42641;59.794;17.616;2023-07-13T07:29:53;3.25;;;1.80;;
56770;SDS011;42641;59.794;17.616;2023-07-13T07:32:20;3.22;;;1.95;;
56770;SDS011;42641;59.794;17.616;2023-07-13T07:34:46;4.35;;;1.80;;
56770;SDS011;42641;59.794;17.616;2023-07-13T07:37:13;5.57;;;2.03;;
56770;SDS011;42641;59.794;17.616;2023-07-13T07:39:40;2.42;;;1.75;;
56770;SDS011;42641;59.794;17.616;2023-07-13T07:42:06;4.65;;;2.00;;
56770;SDS011;42641;59.794;17.616;2023-07-13T07:44:33;2.58;;;1.70;;
56770;SDS011;42641;59.794;17.616;2023-07-13T07:47:00;5.40;;;1.83;;
56770;SDS011;42641;59.794;17.616;2023-07-13T07:49:27;6.07;;;2.10;;
56770;SDS011;42641;59.794;17.616;2023-07-13T07:51:53;3.63;;;1.90;;
56770;SDS011;42641;59.794;17.616;2023-07-13T07:54:20;3.88;;;1.83;;
56770;SDS011;42641;59.794;17.616;2023-07-13T07:56:46;6.63;;;2.15;;
56770;SDS011;42641;59.794;17.616;2023-07-13T07:59:13;5.70;;;2.00;;
56770;SDS011;42641;59.794;17.616;2023-07-13T08:01:39;2.20;;;1.58;;
56770;SDS011;42641;59.794;17.616;2023-07-13T08:04:06;7.50;;;1.70;;
56770;SDS011;42641;59.794;17.616;2023-07-13T08:06:32;2.38;;;1.67;;
56770;SDS011;42641;59.794;17.616;2023-07-13T08:08:59;2.78;;;2.08;;
56770;SDS011;42641;59.794;17.616;2023-07-13T08:11:27;2.80;;;1.60;;
56770;SDS011;42641;59.794;17.616;2023-07-13T08:13:53;4.00;;;1.85;;
56770;SDS011;42641;59.794;17.616;2023-07-13T08:16:20;4.40;;;1.60;;
56770;SDS011;42641;59.794;17.616;2023-07-13T08:18:47;3.65;;;1.55;;
56770;SDS011;42641;59.794;17.616;2023-07-13T08:21:13;4.03;;;1.77;;
56770;SDS011;42641;59.794;17.616;2023-07-13T08:23:40;6.68;;;1.70;;
56770;SDS011;42641;59.794;17.616;2023-07-13T08:26:06;7.18;;;2.15;;
56770;SDS011;42641;59.794;17.616;2023-07-13T08:28:33;3.47;;;1.60;;
56770;SDS011;42641;59.794;17.616;2023-07-13T08:31:04;4.38;;;1.90;;
56770;SDS011;42641;59.794;17.616;2023-07-13T08:33:34;2.70;;;1.35;;
56770;SDS011;42641;59.794;17.616;2023-07-13T08:36:01;3.17;;;1.80;;
56770;SDS011;42641;59.794;17.616;2023-07-13T08:38:28;2.92;;;1.70;;
56770;SDS011;42641;59.794;17.616;2023-07-13T08:40:55;3.55;;;1.70;;
56770;SDS011;42641;59.794;17.616;2023-07-13T08:43:25;5.65;;;1.70;;
56770;SDS011;42641;59.794;17.616;2023-07-13T08:46:01;4.03;;;1.50;;
56770;SDS011;42641;59.794;17.616;2023-07-13T08:48:53;4.47;;;1.90;;
56770;SDS011;42641;59.794;17.616;2023-07-13T08:54:02;3.70;;;1.70;;
56770;SDS011;42641;59.794;17.616;2023-07-13T08:56:31;4.68;;;1.70;;
56770;SDS011;42641;59.794;17.616;2023-07-13T08:59:20;3.08;;;1.70;;
56770;SDS011;42641;59.794;17.616;2023-07-13T09:05:01;3.97;;;1.83;;
56770;SDS011;42641;59.794;17.616;2023-07-13T09:10:41;5.03;;;1.92;;
56770;SDS011;42641;59.794;17.616;2023-07-13T09:16:16;4.45;;;1.60;;
56770;SDS011;42641;59.794;17.616;2023-07-13T09:18:45;2.40;;;1.30;;
56770;SDS011;42641;59.794;17.616;2023-07-13T09:21:15;2.63;;;1.60;;
56770;SDS011;42641;59.794;17.616;2023-07-13T09:23:47;4.68;;;1.80;;
56770;SDS011;42641;59.794;17.616;2023-07-13T09:26:16;3.22;;;1.70;;
56770;SDS011;42641;59.794;17.616;2023-07-13T09:28:52;2.15;;;1.50;;
56770;SDS011;42641;59.794;17.616;2023-07-13T09:31:28;2.55;;;1.40;;
56770;SDS011;42641;59.794;17.616;2023-07-13T09:34:00;3.65;;;1.70;;
56770;SDS011;42641;59.794;17.616;2023-07-13T09:36:31;3.40;;;1.73;;
56770;SDS011;42641;59.794;17.616;2023-07-13T09:44:15;3.92;;;1.40;;
56770;SDS011;42641;59.794;17.616;2023-07-13T09:46:44;4.07;;;2.05;;
56770;SDS011;42641;59.794;17.616;2023-07-13T09:49:18;1.98;;;1.50;;
56770;SDS011;42641;59.794;17.616;2023-07-13T09:51:44;3.92;;;1.67;;
56770;SDS011;42641;59.794;17.616;2023-07-13T09:54:17;3.33;;;1.60;;
56770;SDS011;42641;59.794;17.616;2023-07-13T09:56:45;3.00;;;1.45;;
56770;SDS011;42641;59.794;17.616;2023-07-13T09:59:19;3.33;;;1.60;;
56770;SDS011;42641;59.794;17.616;2023-07-13T10:01:46;3.65;;;1.48;;
56770;SDS011;42641;59.794;17.616;2023-07-13T10:04:14;3.53;;;1.40;;
56770;SDS011;42641;59.794;17.616;2023-07-13T10:06:44;4.22;;;1.52;;
56770;SDS011;42641;59.794;17.616;2023-07-13T10:09:15;3.17;;;1.40;;
56770;SDS011;42641;59.794;17.616;2023-07-13T10:11:44;4.10;;;1.60;;
56770;SDS011;42641;59.794;17.616;2023-07-13T10:14:12;2.88;;;1.83;;
56770;SDS011;42641;59.794;17.616;2023-07-13T10:16:44;4.63;;;1.45;;
56770;SDS011;42641;59.794;17.616;2023-07-13T10:19:18;4.70;;;1.50;;
56770;SDS011;42641;59.794;17.616;2023-07-13T10:21:55;1.58;;;1.30;;
56770;SDS011;42641;59.794;17.616;2023-07-13T10:24:26;3.47;;;1.83;;
56770;SDS011;42641;59.794;17.616;2023-07-13T10:29:44;1.77;;;1.10;;
56770;SDS011;42641;59.794;17.616;2023-07-13T10:32:34;3.67;;;1.30;;
56770;SDS011;42641;59.794;17.616;2023-07-13T10:35:01;4.57;;;1.73;;
56770;SDS011;42641;59.794;17.616;2023-07-13T10:37:30;3.50;;;1.63;;
56770;SDS011;42641;59.794;17.616;2023-07-13T10:40:22;2.78;;;1.70;;
56770;SDS011;42641;59.794;17.616;2023-07-13T10:42:54;5.45;;;1.75;;
56770;SDS011;42641;59.794;17.616;2023-07-13T10:45:24;3.58;;;1.40;;
56770;SDS011;42641;59.794;17.616;2023-07-13T10:47:55;2.97;;;1.60;;
56770;SDS011;42641;59.794;17.616;2023-07-13T10:50:23;3.70;;;1.45;;
56770;SDS011;42641;59.794;17.616;2023-07-13T10:58:42;2.78;;;1.48;;
56770;SDS011;42641;59.794;17.616;2023-07-13T11:01:11;4.85;;;1.30;;
56770;SDS011;42641;59.794;17.616;2023-07-13T11:08:56;3.00;;;1.42;;
56770;SDS011;42641;59.794;17.616;2023-07-13T11:14:01;2.40;;;1.05;;
56770;SDS011;42641;59.794;17.616;2023-07-13T11:16:38;4.65;;;1.60;;
56770;SDS011;42641;59.794;17.616;2023-07-13T11:24:49;2.80;;;1.17;;
56770;SDS011;42641;59.794;17.616;2023-07-13T11:30:19;2.13;;;1.23;;
56770;SDS011;42641;59.794;17.616;2023-07-13T11:32:51;2.50;;;1.23;;
56770;SDS011;42641;59.794;17.616;2023-07-13T11:36:04;4.03;;;1.30;;
56770;SDS011;42641;59.794;17.616;2023-07-13T11:38:38;2.67;;;1.40;;
56770;SDS011;42641;59.794;17.616;2023-07-13T11:41:15;5.22;;;1.50;;
56770;SDS011;42641;59.794;17.616;2023-07-13T11:44:01;2.97;;;1.13;;
56770;SDS011;42641;59.794;17.616;2023-07-13T11:46:38;3.17;;;1.42;;
56770;SDS011;42641;59.794;17.616;2023-07-13T11:49:05;3.42;;;1.40;;
56770;SDS011;42641;59.794;17.616;2023-07-13T11:51:35;3.08;;;1.30;;
56770;SDS011;42641;59.794;17.616;2023-07-13T11:54:13;4.20;;;1.88;;
56770;SDS011;42641;59.794;17.616;2023-07-13T11:56:48;3.03;;;1.27;;
56770;SDS011;42641;59.794;17.616;2023-07-13T11:59:15;2.60;;;1.17;;
56770;SDS011;42641;59.794;17.616;2023-07-13T12:01:44;2.67;;;1.08;;
56770;SDS011;42641;59.794;17.616;2023-07-13T12:04:22;4.00;;;1.23;;
56770;SDS011;42641;59.794;17.616;2023-07-13T12:06:54;3.33;;;1.25;;
56770;SDS011;42641;59.794;17.616;2023-07-13T12:09:22;4.53;;;1.70;;
56770;SDS011;42641;59.794;17.616;2023-07-13T12:11:51;3.60;;;1.30;;
56770;SDS011;42641;59.794;17.616;2023-07-13T12:14:18;3.88;;;1.10;;
56770;SDS011;42641;59.794;17.616;2023-07-13T12:16:50;2.17;;;1.10;;
56770;SDS011;42641;59.794;17.616;2023-07-13T12:33:47;2.80;;;1.27;;
56770;SDS011;42641;59.794;17.616;2023-07-13T12:36:21;2.05;;;1.30;;
56770;SDS011;42641;59.794;17.616;2023-07-13T12:38:48;2.20;;;1.30;;
56770;SDS011;42641;59.794;17.616;2023-07-13T12:41:15;4.18;;;1.35;;
56770;SDS011;42641;59.794;17.616;2023-07-13T12:43:41;2.50;;;1.25;;
56770;SDS011;42641;59.794;17.616;2023-07-13T12:46:18;4.13;;;1.30;;
56770;SDS011;42641;59.794;17.616;2023-07-13T12:48:53;3.42;;;1.40;;
56770;SDS011;42641;59.794;17.616;2023-07-13T12:51:21;3.38;;;1.50;;
56770;SDS011;42641;59.794;17.616;2023-07-13T12:53:56;2.03;;;1.13;;
56770;SDS011;42641;59.794;17.616;2023-07-13T12:56:26;3.20;;;1.30;;
56770;SDS011;42641;59.794;17.616;2023-07-13T12:58:58;3.80;;;1.45;;
56770;SDS011;42641;59.794;17.616;2023-07-13T13:01:27;2.03;;;1.30;;
56770;SDS011;42641;59.794;17.616;2023-07-13T13:03:55;2.60;;;1.40;;
56770;SDS011;42641;59.794;17.616;2023-07-13T13:06:26;1.80;;;1.15;;
56770;SDS011;42641;59.794;17.616;2023-07-13T13:08:55;2.78;;;0.93;;
56770;SDS011;42641;59.794;17.616;2023-07-13T13:20:25;2.55;;;1.33;;
56770;SDS011;42641;59.794;17.616;2023-07-13T13:22:51;1.42;;;0.93;;
56770;SDS011;42641;59.794;17.616;2023-07-13T13:25:18;2.65;;;1.30;;
56770;SDS011;42641;59.794;17.616;2023-07-13T13:27:45;1.92;;;1.40;;
56770;SDS011;42641;59.794;17.616;2023-07-13T13:30:13;1.35;;;1.00;;
56770;SDS011;42641;59.794;17.616;2023-07-13T13:32:42;1.33;;;1.10;;
56770;SDS011;42641;59.794;17.616;2023-07-13T13:35:13;1.60;;;1.00;;
56770;SDS011;42641;59.794;17.616;2023-07-13T13:37:45;1.90;;;1.00;;
56770;SDS011;42641;59.794;17.616;2023-07-13T13:40:17;2.90;;;1.30;;
56770;SDS011;42641;59.794;17.616;2023-07-13T13:42:45;1.98;;;1.05;;
56770;SDS011;42641;59.794;17.616;2023-07-13T13:45:12;2.60;;;0.98;;
56770;SDS011;42641;59.794;17.616;2023-07-13T13:47:39;1.58;;;1.05;;
56770;SDS011;42641;59.794;17.616;2023-07-13T13:50:10;1.10;;;1.00;;
56770;SDS011;42641;59.794;17.616;2023-07-13T13:52:40;2.78;;;1.13;;
56770;SDS011;42641;59.794;17.616;2023-07-13T13:55:28;3.58;;;1.10;;
56770;SDS011;42641;59.794;17.616;2023-07-13T13:57:54;2.28;;;1.20;;
56770;SDS011;42641;59.794;17.616;2023-07-13T14:00:20;3.05;;;1.20;;
56770;SDS011;42641;59.794;17.616;2023-07-13T14:02:47;2.35;;;1.00;;
56770;SDS011;42641;59.794;17.616;2023-07-13T14:05:20;1.25;;;0.85;;
56770;SDS011;42641;59.794;17.616;2023-07-13T14:07:48;2.35;;;1.25;;
56770;SDS011;42641;59.794;17.616;2023-07-13T14:10:18;7.75;;;1.38;;
56770;SDS011;42641;59.794;17.616;2023-07-13T14:12:46;1.88;;;1.10;;
56770;SDS011;42641;59.794;17.616;2023-07-13T14:15:24;1.73;;;1.10;;
56770;SDS011;42641;59.794;17.616;2023-07-13T14:17:51;3.00;;;1.10;;
56770;SDS011;42641;59.794;17.616;2023-07-13T14:20:18;2.53;;;1.10;;
56770;SDS011;42641;59.794;17.616;2023-07-13T14:22:46;3.08;;;1.10;;
56770;SDS011;42641;59.794;17.616;2023-07-13T14:25:13;1.77;;;1.30;;
56770;SDS011;42641;59.794;17.616;2023-07-13T14:27:41;3.00;;;1.30;;
56770;SDS011;42641;59.794;17.616;2023-07-13T14:30:13;1.67;;;1.30;;
56770;SDS011;42641;59.794;17.616;2023-07-13T14:32:41;2.03;;;1.15;;
56770;SDS011;42641;59.794;17.616;2023-07-13T14:35:11;2.65;;;1.08;;
56770;SDS011;42641;59.794;17.616;2023-07-13T14:37:38;2.30;;;1.00;;
56770;SDS011;42641;59.794;17.616;2023-07-13T14:40:16;1.98;;;1.40;;
56770;SDS011;42641;59.794;17.616;2023-07-13T14:42:45;2.38;;;1.00;;
56770;SDS011;42641;59.794;17.616;2023-07-13T14:45:17;1.73;;;0.90;;
56770;SDS011;42641;59.794;17.616;2023-07-13T14:47:45;1.23;;;0.82;;
56770;SDS011;42641;59.794;17.616;2023-07-13T14:50:46;1.52;;;1.00;;
56770;SDS011;42641;59.794;17.616;2023-07-13T14:53:08;0.80;;;0.60;;
56770;SDS011;42641;59.794;17.616;2023-07-13T14:55:36;3.90;;;0.90;;
56770;SDS011;42641;59.794;17.616;2023-07-13T14:58:03;1.65;;;1.23;;
56770;SDS011;42641;59.794;17.616;2023-07-13T15:00:29;1.60;;;0.90;;
56770;SDS011;42641;59.794;17.616;2023-07-13T15:02:57;3.47;;;1.00;;
56770;SDS011;42641;59.794;17.616;2023-07-13T15:05:27;1.88;;;0.88;;
56770;SDS011;42641;59.794;17.616;2023-07-13T15:07:59;3.47;;;1.42;;
56770;SDS011;42641;59.794;17.616;2023-07-13T15:10:29;2.20;;;1.10;;
56770;SDS011;42641;59.794;17.616;2023-07-13T15:12:59;1.35;;;1.10;;
56770;SDS011;42641;59.794;17.616;2023-07-13T15:15:28;2.47;;;1.17;;
56770;SDS011;42641;59.794;17.616;2023-07-13T15:17:58;2.28;;;1.10;;
56770;SDS011;42641;59.794;17.616;2023-07-13T15:22:53;2.10;;;1.20;;
56770;SDS011;42641;59.794;17.616;2023-07-13T15:25:21;2.42;;;1.23;;
56770;SDS011;42641;59.794;17.616;2023-07-13T15:27:51;2.15;;;1.05;;
56770;SDS011;42641;59.794;17.616;2023-07-13T15:30:18;1.27;;;0.82;;
56770;SDS011;42641;59.794;17.616;2023-07-13T15:32:45;2.50;;;0.90;;
56770;SDS011;42641;59.794;17.616;2023-07-13T15:35:13;1.77;;;0.88;;
56770;SDS011;42641;59.794;17.616;2023-07-13T15:37:48;1.48;;;0.90;;
56770;SDS011;42641;59.794;17.616;2023-07-13T15:40:15;3.15;;;0.95;;
56770;SDS011;42641;59.794;17.616;2023-07-13T15:42:43;4.68;;;1.10;;
56770;SDS011;42641;59.794;17.616;2023-07-13T15:45:14;3.03;;;1.23;;
56770;SDS011;42641;59.794;17.616;2023-07-13T15:47:46;1.92;;;1.00;;
56770;SDS011;42641;59.794;17.616;2023-07-13T15:50:17;2.00;;;1.13;;
56770;SDS011;42641;59.794;17.616;2023-07-13T15:52:49;2.15;;;1.10;;
56770;SDS011;42641;59.794;17.616;2023-07-13T15:55:21;1.48;;;1.05;;
56770;SDS011;42641;59.794;17.616;2023-07-13T15:57:49;6.25;;;1.30;;
56770;SDS011;42641;59.794;17.616;2023-07-13T16:00:22;2.03;;;0.88;;